Time;durP1;ratioP1;P1;durP2;ratioP2;P2;SDS_P1;SDS_P2;PMS_P1;PMS_P2;Temp;Humidity;BMP_temperature;BMP_pressure;BME280_temperature;BME280_humidity;BME280_pressure;Samples;Min_cycle;Max_cycle;Signal;HPM_P1;HPM_P2
2023/07/31 00:00:59;;;;;;;5.97;2.10;;;18.10;99.90;;;;;;5064374;28;20562;-71
2023/07/31 00:03:44;;;;;;;3.90;1.93;;;18.10;99.90;;;;;;5066376;28;20439;-71
2023/07/31 00:06:31;;;;;;;7.10;2.13;;;18.10;99.90;;;;;;5064666;28;20952;-70
2023/07/31 00:09:16;;;;;;;4.30;2.60;;;18.10;99.90;;;;;;5068719;28;20443;-70
2023/07/31 00:12:02;;;;;;;4.97;1.57;;;18.10;99.90;;;;;;5064640;28;20495;-70
2023/07/31 00:14:48;;;;;;;5.53;1.90;;;18.00;99.90;;;;;;5058524;28;20557;-71
2023/07/31 00:17:33;;;;;;;8.30;2.43;;;18.00;99.90;;;;;;5067969;28;20982;-71
2023/07/31 00:20:19;;;;;;;5.20;2.03;;;18.00;99.90;;;;;;5064953;28;21019;-70
2023/07/31 00:23:06;;;;;;;6.70;2.10;;;18.10;99.90;;;;;;5060280;28;20455;-70
2023/07/31 00:25:51;;;;;;;12.57;1.90;;;18.20;99.90;;;;;;5067031;28;20461;-70
2023/07/31 00:28:37;;;;;;;7.67;2.60;;;18.20;99.90;;;;;;5063042;28;20470;-70
2023/07/31 00:31:22;;;;;;;11.10;2.40;;;18.30;99.90;;;;;;5065809;28;20693;-70
2023/07/31 00:34:08;;;;;;;15.70;3.17;;;18.40;99.90;;;;;;5057287;28;20451;-70
2023/07/31 00:36:54;;;;;;;10.77;2.40;;;18.40;99.90;;;;;;5065448;28;20425;-70
2023/07/31 00:39:40;;;;;;;8.13;2.57;;;18.50;99.90;;;;;;5061547;28;20444;-70
2023/07/31 00:42:26;;;;;;;9.00;2.37;;;18.60;99.90;;;;;;5062493;28;20855;-70
2023/07/31 00:45:11;;;;;;;10.13;2.27;;;18.70;99.90;;;;;;5068803;28;20472;-71
2023/07/31 00:47:57;;;;;;;8.17;2.67;;;18.80;99.90;;;;;;5061463;28;21019;-71
2023/07/31 00:50:42;;;;;;;7.53;2.93;;;18.90;99.90;;;;;;5067366;28;20935;-70
2023/07/31 00:53:28;;;;;;;5.30;2.13;;;18.90;99.90;;;;;;5066643;28;20415;-71
2023/07/31 00:56:16;;;;;;;5.90;2.27;;;19.00;99.90;;;;;;5064387;28;20521;-70
2023/07/31 00:59:01;;;;;;;5.03;2.07;;;18.90;99.90;;;;;;5062497;28;20479;-70
2023/07/31 01:01:48;;;;;;;6.87;2.20;;;19.00;99.90;;;;;;5063256;28;20515;-70
2023/07/31 01:04:33;;;;;;;4.83;2.47;;;19.00;99.90;;;;;;5069907;28;20470;-70
2023/07/31 01:07:27;;;;;;;6.20;2.83;;;19.00;99.90;;;;;;5065547;28;20458;-71
2023/07/31 01:10:21;;;;;;;5.03;2.17;;;19.00;99.90;;;;;;5056878;28;21316;-70
2023/07/31 01:13:09;;;;;;;9.90;2.87;;;19.00;99.90;;;;;;5063300;28;20413;-70
2023/07/31 01:15:54;;;;;;;7.30;2.13;;;19.00;99.90;;;;;;5065309;28;20450;-71
2023/07/31 01:18:40;;;;;;;5.20;1.80;;;19.00;99.90;;;;;;5063891;28;21187;-70
2023/07/31 01:21:56;;;;;;;6.93;2.23;;;19.00;99.90;;;;;;5067738;28;20495;-71
2023/07/31 01:24:55;;;;;;;6.50;2.50;;;19.10;99.90;;;;;;5066244;28;20420;-70
2023/07/31 01:27:52;;;;;;;7.00;1.90;;;19.10;99.90;;;;;;5073362;28;20603;-70
2023/07/31 01:30:43;;;;;;;5.03;2.63;;;19.10;99.90;;;;;;5065255;28;20446;-70
2023/07/31 01:33:29;;;;;;;16.60;3.00;;;19.10;99.90;;;;;;5064133;28;20456;-71
2023/07/31 01:36:15;;;;;;;5.33;1.90;;;19.10;99.90;;;;;;5063237;28;20431;-71
2023/07/31 01:39:01;;;;;;;6.63;2.27;;;19.10;99.90;;;;;;5070339;28;20472;-70
2023/07/31 01:41:46;;;;;;;6.40;2.10;;;19.10;99.90;;;;;;5064530;28;20987;-70
2023/07/31 01:44:33;;;;;;;4.70;2.17;;;19.10;99.90;;;;;;5066069;28;20448;-69
2023/07/31 01:47:19;;;;;;;8.33;2.37;;;19.00;99.90;;;;;;5065831;28;20439;-70
2023/07/31 01:50:05;;;;;;;6.47;2.40;;;19.00;99.90;;;;;;5070968;28;20960;-71
2023/07/31 01:52:51;;;;;;;6.00;2.40;;;19.10;99.90;;;;;;5071547;28;20891;-70
2023/07/31 01:55:37;;;;;;;3.50;1.93;;;19.10;99.90;;;;;;5070681;28;20531;-71
2023/07/31 01:58:22;;;;;;;9.23;2.30;;;19.00;99.90;;;;;;5067114;28;20466;-70
2023/07/31 02:01:09;;;;;;;6.20;2.00;;;19.00;99.90;;;;;;5067772;28;20470;-71
2023/07/31 02:03:54;;;;;;;4.17;2.17;;;19.00;99.90;;;;;;5069695;28;20966;-70
2023/07/31 02:06:40;;;;;;;5.43;2.30;;;19.00;99.90;;;;;;5069994;28;20436;-70
2023/07/31 02:09:25;;;;;;;7.07;2.87;;;19.00;99.90;;;;;;5071486;28;20466;-70
2023/07/31 02:12:11;;;;;;;5.27;2.13;;;19.00;99.90;;;;;;5068248;28;20452;-71
2023/07/31 02:14:57;;;;;;;7.53;2.50;;;19.00;99.90;;;;;;5068346;28;20504;-70
2023/07/31 02:17:43;;;;;;;9.07;2.43;;;19.00;99.90;;;;;;5067877;28;20467;-70
2023/07/31 02:20:29;;;;;;;7.13;2.33;;;19.00;99.90;;;;;;5065937;28;20481;-70
2023/07/31 02:23:14;;;;;;;8.60;2.87;;;19.00;99.90;;;;;;5062908;28;20518;-71
2023/07/31 02:26:00;;;;;;;5.97;2.17;;;19.00;99.90;;;;;;5068064;28;20436;-70
2023/07/31 02:28:46;;;;;;;10.73;2.57;;;19.00;99.90;;;;;;5066907;28;20541;-70
2023/07/31 02:31:31;;;;;;;7.13;2.93;;;18.90;99.90;;;;;;5073401;28;20502;-72
2023/07/31 02:34:18;;;;;;;5.43;2.57;;;18.90;99.90;;;;;;5065621;28;20515;-70
2023/07/31 02:37:04;;;;;;;4.80;2.37;;;18.90;99.90;;;;;;5064459;28;20574;-70
2023/07/31 02:39:49;;;;;;;5.33;2.30;;;18.80;99.90;;;;;;5071797;28;20491;-71
2023/07/31 02:42:35;;;;;;;3.30;1.83;;;18.80;99.90;;;;;;5069081;28;20954;-70
2023/07/31 02:45:20;;;;;;;9.60;2.23;;;18.80;99.90;;;;;;5065116;28;20440;-70
2023/07/31 02:48:06;;;;;;;4.80;2.00;;;18.80;99.90;;;;;;5070392;28;22526;-70
2023/07/31 02:50:53;;;;;;;9.20;2.63;;;18.80;99.90;;;;;;5071727;28;20505;-71
2023/07/31 02:53:38;;;;;;;5.53;2.50;;;18.80;99.90;;;;;;5070704;28;20584;-70
2023/07/31 02:56:24;;;;;;;5.27;2.30;;;18.70;99.90;;;;;;5066114;28;20558;-70
2023/07/31 02:59:09;;;;;;;8.83;3.10;;;18.70;99.90;;;;;;5064248;28;20672;-70
2023/07/31 03:01:55;;;;;;;5.67;2.57;;;18.70;99.90;;;;;;5069716;28;20438;-71
2023/07/31 03:04:40;;;;;;;10.20;3.00;;;18.70;99.90;;;;;;5066353;28;20491;-70
2023/07/31 03:07:28;;;;;;;6.57;2.27;;;18.60;99.90;;;;;;5066160;28;20415;-71
2023/07/31 03:10:13;;;;;;;5.83;2.40;;;18.60;99.90;;;;;;5066706;28;20451;-70
2023/07/31 03:12:59;;;;;;;7.93;2.40;;;18.60;99.90;;;;;;5065751;28;20882;-71
2023/07/31 03:15:44;;;;;;;9.57;2.67;;;18.60;99.90;;;;;;5063241;28;20461;-70
2023/07/31 03:18:29;;;;;;;7.13;2.33;;;18.60;99.90;;;;;;5062253;28;20593;-70
2023/07/31 03:21:15;;;;;;;7.37;2.27;;;18.60;99.90;;;;;;5068534;28;20807;-70
2023/07/31 03:24:02;;;;;;;4.50;2.50;;;18.60;99.90;;;;;;5073607;28;20448;-70
2023/07/31 03:26:48;;;;;;;7.97;2.60;;;18.50;99.90;;;;;;5071908;28;20409;-71
2023/07/31 03:29:33;;;;;;;4.00;2.20;;;18.50;99.90;;;;;;5068085;28;20547;-71
2023/07/31 03:32:19;;;;;;;5.70;2.13;;;18.50;99.90;;;;;;5063840;28;20535;-70
2023/07/31 03:35:05;;;;;;;20.57;2.57;;;18.50;99.90;;;;;;5070716;28;20448;-70
2023/07/31 03:37:51;;;;;;;7.30;2.33;;;18.40;99.90;;;;;;5063731;28;20483;-71
2023/07/31 03:40:37;;;;;;;7.87;2.77;;;18.40;99.90;;;;;;5064493;28;20471;-70
2023/07/31 03:43:23;;;;;;;10.13;3.33;;;18.40;99.90;;;;;;5063850;28;20420;-70
2023/07/31 03:46:08;;;;;;;5.30;2.07;;;18.40;99.90;;;;;;5068558;28;20509;-70
2023/07/31 03:48:54;;;;;;;7.53;2.50;;;18.40;99.90;;;;;;5064030;28;20473;-70
2023/07/31 03:51:40;;;;;;;7.00;2.53;;;18.40;99.90;;;;;;5069595;28;20522;-71
2023/07/31 03:54:25;;;;;;;9.07;3.03;;;18.40;99.90;;;;;;5070573;28;20421;-71
2023/07/31 03:57:12;;;;;;;7.83;3.30;;;18.30;99.90;;;;;;5070891;28;20978;-71
2023/07/31 03:59:58;;;;;;;3.90;2.00;;;18.40;99.90;;;;;;5063952;28;20409;-71
2023/07/31 04:02:43;;;;;;;8.37;4.30;;;18.30;99.90;;;;;;5068578;28;21199;-70
2023/07/31 04:05:31;;;;;;;7.20;2.43;;;18.30;99.90;;;;;;5068647;28;20893;-70
2023/07/31 04:08:16;;;;;;;5.93;2.63;;;18.40;99.90;;;;;;5072133;28;20458;-71
2023/07/31 04:11:02;;;;;;;5.83;2.60;;;18.40;99.90;;;;;;5068407;28;20544;-71
2023/07/31 04:13:49;;;;;;;5.33;2.50;;;18.50;99.90;;;;;;5064183;28;20959;-70
2023/07/31 04:16:34;;;;;;;5.20;2.33;;;18.50;99.90;;;;;;5070739;28;20492;-71
2023/07/31 04:19:20;;;;;;;7.80;3.20;;;18.50;99.90;;;;;;5066627;28;20520;-71
2023/07/31 04:22:06;;;;;;;6.53;2.30;;;18.50;99.90;;;;;;5066054;28;20470;-70
2023/07/31 04:24:51;;;;;;;7.97;3.17;;;18.40;99.90;;;;;;5069473;28;20500;-71
2023/07/31 04:27:37;;;;;;;16.73;3.47;;;18.40;99.90;;;;;;5066808;28;20691;-71
2023/07/31 04:30:24;;;;;;;4.50;2.50;;;18.40;99.90;;;;;;5071711;28;20469;-71
2023/07/31 04:33:10;;;;;;;6.90;2.63;;;18.30;99.90;;;;;;5063817;28;20446;-70
2023/07/31 04:35:56;;;;;;;7.27;2.40;;;18.40;99.90;;;;;;5066696;28;20413;-70
2023/07/31 04:38:41;;;;;;;6.47;2.40;;;18.40;99.90;;;;;;5066247;28;20466;-71
2023/07/31 04:41:27;;;;;;;11.03;2.50;;;18.50;99.90;;;;;;5071974;28;20617;-71
2023/07/31 04:44:13;;;;;;;6.50;2.60;;;18.40;99.90;;;;;;5068372;28;20417;-71
2023/07/31 04:47:00;;;;;;;8.40;2.83;;;18.40;99.90;;;;;;5065787;28;20979;-70
2023/07/31 04:49:45;;;;;;;5.63;2.60;;;18.40;99.90;;;;;;5096781;23;20494;-75
2023/07/31 04:52:31;;;;;;;5.47;2.53;;;18.50;99.90;;;;;;5083857;28;20429;-75
2023/07/31 04:55:16;;;;;;;10.47;2.73;;;18.50;99.90;;;;;;5092922;28;20412;-75
2023/07/31 04:58:02;;;;;;;5.23;2.00;;;18.40;99.90;;;;;;5101775;28;20800;-75
2023/07/31 05:00:47;;;;;;;5.40;2.20;;;18.40;99.90;;;;;;5099086;28;20802;-75
2023/07/31 05:03:34;;;;;;;5.83;2.23;;;18.40;99.90;;;;;;5099601;28;20473;-75
2023/07/31 05:06:20;;;;;;;5.83;2.27;;;18.40;99.90;;;;;;5102638;28;20429;-75
2023/07/31 05:09:05;;;;;;;6.50;2.93;;;18.30;99.90;;;;;;5087564;28;20487;-75
2023/07/31 05:11:51;;;;;;;6.87;2.50;;;18.30;99.90;;;;;;5096473;28;20449;-75
2023/07/31 05:14:36;;;;;;;7.60;2.70;;;18.40;99.90;;;;;;5105100;28;20848;-75
2023/07/31 05:17:22;;;;;;;3.90;2.40;;;18.40;99.90;;;;;;5102258;28;20517;-75
2023/07/31 05:20:10;;;;;;;8.87;2.90;;;18.30;99.90;;;;;;5108255;28;20486;-75
2023/07/31 05:22:55;;;;;;;5.17;2.73;;;18.30;99.90;;;;;;5102740;28;20507;-75
2023/07/31 05:25:41;;;;;;;7.70;2.60;;;18.30;99.90;;;;;;5108283;28;20957;-75
2023/07/31 05:28:26;;;;;;;7.93;3.03;;;18.30;99.90;;;;;;5094643;28;21026;-75
2023/07/31 05:31:12;;;;;;;6.20;3.10;;;18.30;99.90;;;;;;5105146;28;20441;-76
2023/07/31 05:33:57;;;;;;;11.93;2.30;;;18.20;99.90;;;;;;5095139;28;20441;-76
2023/07/31 05:36:44;;;;;;;6.20;2.10;;;18.20;99.90;;;;;;5103192;28;20428;-76
2023/07/31 05:39:30;;;;;;;9.80;3.17;;;18.20;99.90;;;;;;5103069;28;20608;-76
2023/07/31 05:42:16;;;;;;;5.67;2.20;;;18.20;99.90;;;;;;5097905;28;20807;-76
2023/07/31 05:45:01;;;;;;;8.20;3.00;;;18.30;99.90;;;;;;5098949;28;20531;-76
2023/07/31 05:47:47;;;;;;;7.80;3.10;;;18.30;99.90;;;;;;5096083;28;20434;-76
2023/07/31 05:50:32;;;;;;;10.03;2.70;;;18.30;99.90;;;;;;5098538;28;20424;-75
2023/07/31 05:53:19;;;;;;;8.90;2.90;;;18.40;99.90;;;;;;5100726;28;20438;-76
2023/07/31 05:56:05;;;;;;;6.73;2.73;;;18.40;99.90;;;;;;5093192;28;20441;-76
2023/07/31 05:58:51;;;;;;;7.07;3.13;;;18.40;99.90;;;;;;5093048;28;20476;-77
2023/07/31 06:01:36;;;;;;;5.83;2.60;;;18.50;99.90;;;;;;5102005;28;20465;-76
2023/07/31 06:04:22;;;;;;;7.70;2.70;;;18.40;99.90;;;;;;5099731;28;20454;-76
2023/07/31 06:07:08;;;;;;;5.83;2.60;;;18.40;99.90;;;;;;5103341;28;20491;-76
2023/07/31 06:09:55;;;;;;;5.70;2.60;;;18.30;99.90;;;;;;5101789;28;20523;-76
2023/07/31 06:12:40;;;;;;;9.10;2.70;;;18.30;99.90;;;;;;5103688;28;20796;-76
2023/07/31 06:15:26;;;;;;;10.90;2.70;;;18.50;99.90;;;;;;5098879;28;20582;-76
2023/07/31 06:18:12;;;;;;;14.67;2.80;;;18.40;99.90;;;;;;5102336;28;21097;-76
2023/07/31 06:20:57;;;;;;;5.07;2.50;;;18.40;99.90;;;;;;5098463;28;20416;-76
2023/07/31 06:23:43;;;;;;;7.90;2.90;;;18.40;99.90;;;;;;5092327;28;20875;-76
2023/07/31 06:26:30;;;;;;;9.47;2.83;;;18.50;99.90;;;;;;5099839;28;20729;-76
2023/07/31 06:29:15;;;;;;;5.83;2.50;;;18.50;99.90;;;;;;5101676;28;20493;-77
2023/07/31 06:32:01;;;;;;;12.77;2.70;;;18.60;99.90;;;;;;5096558;28;20532;-76
2023/07/31 06:34:47;;;;;;;10.97;3.20;;;18.70;99.90;;;;;;5102394;28;20493;-76
2023/07/31 06:37:32;;;;;;;13.37;2.93;;;18.70;99.90;;;;;;5095318;28;20442;-76
2023/07/31 06:40:19;;;;;;;4.80;2.60;;;18.80;99.90;;;;;;5107330;28;20446;-76
2023/07/31 06:43:07;;;;;;;6.70;2.13;;;18.80;99.90;;;;;;5095345;28;20480;-77
2023/07/31 06:45:53;;;;;;;5.73;2.47;;;18.90;99.90;;;;;;5104772;28;20492;-76
2023/07/31 06:48:39;;;;;;;9.97;3.00;;;18.90;99.90;;;;;;5102510;28;20563;-76
2023/07/31 06:51:25;;;;;;;8.20;3.10;;;18.90;99.90;;;;;;5098289;28;20445;-76
2023/07/31 06:54:10;;;;;;;7.60;2.90;;;18.90;99.90;;;;;;5103364;28;20416;-76
2023/07/31 06:56:55;;;;;;;5.90;3.10;;;18.90;99.90;;;;;;5098049;28;20453;-76
2023/07/31 06:59:42;;;;;;;11.60;3.47;;;18.90;99.90;;;;;;5095157;28;20470;-77
2023/07/31 07:02:28;;;;;;;7.53;3.17;;;19.00;99.90;;;;;;5099565;28;20536;-76
2023/07/31 07:05:13;;;;;;;5.93;2.70;;;19.00;99.90;;;;;;5101744;28;20461;-76
2023/07/31 07:07:59;;;;;;;8.80;2.37;;;19.10;99.90;;;;;;5098536;28;20440;-77
2023/07/31 07:10:44;;;;;;;6.20;2.10;;;19.10;99.90;;;;;;5094721;28;20408;-77
2023/07/31 07:13:30;;;;;;;5.63;2.60;;;19.00;99.90;;;;;;5098757;28;20955;-76
2023/07/31 07:16:17;;;;;;;11.50;2.77;;;19.00;99.90;;;;;;5094703;28;20423;-76
2023/07/31 07:19:02;;;;;;;7.40;2.43;;;18.90;99.90;;;;;;5096830;28;20433;-77
2023/07/31 07:21:48;;;;;;;7.40;2.50;;;18.90;99.90;;;;;;5098945;28;20443;-76
2023/07/31 07:24:33;;;;;;;5.60;2.17;;;19.00;99.90;;;;;;5105317;28;20431;-76
2023/07/31 07:27:18;;;;;;;9.40;2.90;;;19.00;99.90;;;;;;5087888;28;20477;-77
2023/07/31 07:30:05;;;;;;;6.63;2.73;;;19.10;99.90;;;;;;5103166;28;20543;-76
2023/07/31 07:32:52;;;;;;;9.50;2.70;;;19.10;99.90;;;;;;5101643;28;20799;-76
2023/07/31 07:35:37;;;;;;;7.30;2.40;;;19.30;99.90;;;;;;5103644;28;20455;-76
2023/07/31 07:38:22;;;;;;;7.67;2.97;;;19.30;99.90;;;;;;5087963;28;20437;-76
2023/07/31 07:41:08;;;;;;;11.27;2.53;;;19.30;99.90;;;;;;5097024;28;20847;-76
2023/07/31 07:43:53;;;;;;;6.33;2.90;;;19.30;99.90;;;;;;5102386;28;20429;-76
2023/07/31 07:46:39;;;;;;;7.70;2.90;;;19.30;99.90;;;;;;5102531;28;20441;-77
2023/07/31 07:49:26;;;;;;;7.60;2.30;;;19.30;99.90;;;;;;5097167;28;20472;-77
2023/07/31 07:52:11;;;;;;;6.90;2.57;;;19.40;99.90;;;;;;5091184;28;20450;-76
2023/07/31 07:54:57;;;;;;;6.10;3.03;;;19.30;99.90;;;;;;5103818;28;20841;-76
2023/07/31 07:57:44;;;;;;;7.47;2.90;;;19.40;99.90;;;;;;5090244;28;20528;-77
2023/07/31 08:00:29;;;;;;;8.37;3.23;;;19.30;99.90;;;;;;5098438;28;20504;-76
2023/07/31 08:03:16;;;;;;;9.93;2.90;;;19.40;99.90;;;;;;5096394;28;20522;-76
2023/07/31 08:06:03;;;;;;;6.90;2.90;;;19.50;99.90;;;;;;5091012;28;20449;-76
2023/07/31 08:08:48;;;;;;;9.80;2.60;;;19.60;99.90;;;;;;5086038;28;20470;-76
2023/07/31 08:11:34;;;;;;;4.67;2.23;;;19.70;99.90;;;;;;5103172;28;20432;-77
2023/07/31 08:14:20;;;;;;;7.13;2.83;;;19.80;99.90;;;;;;5099189;28;20788;-76
2023/07/31 08:17:05;;;;;;;8.07;3.40;;;19.80;99.90;;;;;;5091257;28;20969;-77
2023/07/31 08:19:51;;;;;;;4.30;2.50;;;19.80;99.90;;;;;;5099953;28;20517;-77
2023/07/31 08:22:38;;;;;;;6.60;3.10;;;20.00;99.90;;;;;;5092521;28;20459;-76
2023/07/31 08:25:23;;;;;;;7.80;2.70;;;20.10;99.90;;;;;;5098683;28;20992;-76
2023/07/31 08:28:09;;;;;;;7.40;2.33;;;20.30;99.90;;;;;;5094462;28;20531;-76
2023/07/31 08:30:55;;;;;;;7.23;2.53;;;20.30;99.90;;;;;;5099751;28;20508;-76
2023/07/31 08:33:41;;;;;;;6.67;2.70;;;20.50;99.90;;;;;;5095083;28;20440;-76
2023/07/31 08:36:26;;;;;;;7.27;2.60;;;20.60;99.90;;;;;;5096075;28;20477;-76
2023/07/31 08:39:12;;;;;;;7.70;2.57;;;20.70;99.90;;;;;;5085908;28;20453;-76
2023/07/31 08:42:01;;;;;;;7.70;2.80;;;20.70;99.90;;;;;;5088665;28;20526;-76
2023/07/31 08:44:47;;;;;;;9.20;2.87;;;20.70;99.90;;;;;;5089844;28;20499;-77
2023/07/31 08:47:32;;;;;;;8.53;2.80;;;20.70;99.90;;;;;;5097586;28;20447;-76
2023/07/31 08:50:21;;;;;;;7.87;2.70;;;20.80;99.90;;;;;;5097838;28;20804;-77
2023/07/31 08:53:06;;;;;;;5.20;3.20;;;21.00;99.90;;;;;;5105179;28;20441;-76
2023/07/31 08:55:54;;;;;;;7.70;3.30;;;21.10;99.90;;;;;;5106339;28;20444;-76
2023/07/31 08:58:40;;;;;;;5.33;2.57;;;21.00;99.90;;;;;;5097127;28;20453;-77
2023/07/31 09:01:30;;;;;;;7.23;2.63;;;21.10;99.90;;;;;;5092957;28;20587;-76
2023/07/31 09:04:17;;;;;;;9.80;2.80;;;21.00;99.90;;;;;;5093648;28;20584;-76
2023/07/31 09:07:04;;;;;;;9.40;3.43;;;21.00;99.90;;;;;;5095047;28;20529;-76
2023/07/31 09:09:49;;;;;;;5.37;2.90;;;21.20;99.90;;;;;;5088007;28;20453;-77
2023/07/31 09:12:37;;;;;;;7.63;2.90;;;21.20;99.90;;;;;;5101269;28;20407;-77
2023/07/31 09:15:24;;;;;;;7.70;3.30;;;21.30;99.90;;;;;;5086337;28;20446;-77
2023/07/31 09:18:10;;;;;;;4.87;3.00;;;21.30;99.90;;;;;;5089229;28;20473;-77
2023/07/31 09:21:03;;;;;;;8.70;3.27;;;21.20;99.90;;;;;;5094281;28;20437;-77
2023/07/31 09:23:49;;;;;;;8.93;2.90;;;21.30;99.90;;;;;;5091036;28;20543;-77
2023/07/31 09:26:35;;;;;;;7.40;2.90;;;21.50;99.90;;;;;;5101709;28;20460;-76
2023/07/31 09:29:22;;;;;;;9.83;2.70;;;21.30;96.90;;;;;;5103358;28;20606;-76
2023/07/31 09:32:17;;;;;;;9.77;3.00;;;21.40;99.30;;;;;;5098886;28;20529;-76
2023/07/31 09:35:02;;;;;;;4.50;2.50;;;21.40;99.90;;;;;;5092645;28;20443;-76
2023/07/31 09:37:52;;;;;;;11.80;2.73;;;21.40;98.50;;;;;;5105528;28;20463;-76
2023/07/31 09:40:38;;;;;;;6.43;2.60;;;21.50;99.30;;;;;;5101402;28;20440;-77
2023/07/31 09:43:24;;;;;;;7.23;3.10;;;21.40;99.90;;;;;;5094345;28;20488;-77
2023/07/31 09:46:15;;;;;;;7.90;3.03;;;21.60;99.00;;;;;;5081847;28;20433;-76
2023/07/31 09:49:09;;;;;;;8.20;3.50;;;21.50;96.00;;;;;;5081710;28;20469;-76
2023/07/31 09:51:54;;;;;;;7.80;3.00;;;21.40;99.00;;;;;;5088177;28;20461;-76
2023/07/31 09:54:39;;;;;;;9.33;3.10;;;21.50;97.70;;;;;;5086444;28;20445;-76
2023/07/31 09:57:25;;;;;;;9.73;2.70;;;21.60;99.90;;;;;;5081506;28;20842;-76
2023/07/31 10:00:11;;;;;;;6.03;3.03;;;21.70;97.00;;;;;;5092029;28;20448;-76
2023/07/31 10:03:00;;;;;;;7.90;3.40;;;21.70;98.10;;;;;;5089327;28;20482;-76
2023/07/31 10:05:53;;;;;;;9.90;4.90;;;21.70;99.50;;;;;;5092342;28;20805;-76
2023/07/31 10:08:39;;;;;;;6.20;3.43;;;21.80;97.10;;;;;;5091063;28;20466;-76
2023/07/31 10:11:28;;;;;;;8.23;3.07;;;21.70;95.80;;;;;;5083560;28;20444;-76
2023/07/31 10:14:14;;;;;;;5.00;2.60;;;21.60;95.80;;;;;;5085619;28;20516;-76
2023/07/31 10:17:00;;;;;;;6.47;3.67;;;21.50;96.50;;;;;;5082947;28;20453;-76
2023/07/31 10:19:50;;;;;;;8.00;3.67;;;21.50;99.30;;;;;;5094971;28;20535;-77
2023/07/31 10:22:39;;;;;;;7.57;2.83;;;21.40;98.80;;;;;;5090879;28;20582;-76
2023/07/31 10:25:25;;;;;;;10.07;3.47;;;21.40;99.20;;;;;;5103832;28;20471;-76
2023/07/31 10:28:15;;;;;;;8.53;3.50;;;21.40;98.60;;;;;;5098724;28;20594;-77
2023/07/31 10:31:02;;;;;;;12.20;3.53;;;21.40;98.70;;;;;;5093904;28;20446;-76
2023/07/31 10:33:51;;;;;;;8.17;3.20;;;21.40;99.90;;;;;;5099908;28;20433;-76
2023/07/31 10:36:39;;;;;;;11.90;3.50;;;21.40;99.80;;;;;;5103764;28;20448;-76
2023/07/31 10:39:43;;;;;;;11.57;3.93;;;21.40;98.60;;;;;;5100064;28;20468;-76
2023/07/31 10:42:30;;;;;;;7.10;3.30;;;21.60;99.90;;;;;;5100525;28;20462;-76
2023/07/31 10:45:27;;;;;;;12.90;3.63;;;21.80;98.50;;;;;;5096391;28;20452;-76
2023/07/31 10:48:14;;;;;;;5.60;2.93;;;22.00;92.20;;;;;;5088448;28;20485;-76
2023/07/31 10:51:00;;;;;;;6.43;3.13;;;22.00;95.60;;;;;;5080337;28;20947;-75
2023/07/31 10:53:47;;;;;;;8.07;3.90;;;22.00;95.00;;;;;;5085409;28;20443;-75
2023/07/31 10:56:38;;;;;;;11.70;3.80;;;22.10;99.10;;;;;;5085174;28;21005;-75
2023/07/31 10:59:28;;;;;;;9.80;3.60;;;22.00;94.30;;;;;;5078819;28;20458;-75
2023/07/31 11:02:25;;;;;;;8.40;3.63;;;22.00;93.30;;;;;;5087963;28;20978;-75
2023/07/31 11:05:11;;;;;;;5.70;3.00;;;21.90;92.00;;;;;;5085276;28;20560;-75
2023/07/31 11:07:57;;;;;;;11.13;3.20;;;21.90;95.90;;;;;;5079570;28;20477;-75
2023/07/31 11:10:45;;;;;;;9.93;3.53;;;21.90;94.00;;;;;;5084245;28;20443;-75
2023/07/31 11:13:31;;;;;;;19.53;4.73;;;21.80;93.60;;;;;;5086291;28;20573;-76
2023/07/31 11:16:17;;;;;;;6.27;3.43;;;21.90;93.60;;;;;;5080643;28;20449;-75
2023/07/31 11:19:03;;;;;;;8.30;3.80;;;21.90;93.10;;;;;;5089412;28;20488;-75
2023/07/31 11:21:49;;;;;;;11.30;3.43;;;22.00;91.00;;;;;;5081191;28;20813;-76
2023/07/31 11:24:35;;;;;;;8.00;3.57;;;22.00;90.30;;;;;;5078577;28;20465;-76
2023/07/31 11:27:21;;;;;;;8.23;3.70;;;22.20;92.60;;;;;;5084247;28;20537;-75
2023/07/31 11:30:08;;;;;;;12.10;3.13;;;22.40;86.90;;;;;;5080046;28;20446;-75
2023/07/31 11:32:53;;;;;;;8.03;3.50;;;22.50;92.20;;;;;;5091174;28;20448;-75
2023/07/31 11:35:44;;;;;;;7.20;4.03;;;22.60;85.60;;;;;;5084855;28;20438;-75
2023/07/31 11:38:31;;;;;;;6.00;2.80;;;22.60;90.20;;;;;;5083378;28;20592;-75
2023/07/31 11:41:17;;;;;;;7.70;3.43;;;22.50;93.90;;;;;;5086813;28;21055;-75
2023/07/31 11:44:04;;;;;;;6.27;3.20;;;22.40;94.10;;;;;;5082621;28;20492;-75
2023/07/31 11:46:51;;;;;;;5.63;2.90;;;22.40;96.10;;;;;;5077706;28;20469;-75
2023/07/31 11:49:38;;;;;;;6.73;3.17;;;22.30;95.80;;;;;;5083964;28;20555;-75
2023/07/31 11:52:24;;;;;;;7.87;3.70;;;22.20;92.50;;;;;;5077136;28;20630;-75
2023/07/31 11:55:10;;;;;;;9.83;3.33;;;22.10;92.00;;;;;;5082821;28;20978;-75
2023/07/31 11:57:58;;;;;;;5.63;3.00;;;22.00;92.60;;;;;;5085508;28;20465;-75
2023/07/31 12:00:45;;;;;;;7.93;3.10;;;22.00;95.10;;;;;;5084060;28;20967;-75
2023/07/31 12:03:30;;;;;;;10.63;3.60;;;22.00;92.60;;;;;;5082972;28;20444;-75
2023/07/31 12:06:16;;;;;;;7.53;3.60;;;21.90;91.80;;;;;;5084855;28;20446;-75
2023/07/31 12:09:04;;;;;;;6.40;3.20;;;22.00;94.80;;;;;;5088250;28;20596;-75
2023/07/31 12:11:49;;;;;;;8.90;3.73;;;22.10;92.30;;;;;;5084182;28;20467;-75
2023/07/31 12:14:35;;;;;;;9.70;4.30;;;22.00;92.90;;;;;;5080881;28;20442;-75
2023/07/31 12:17:22;;;;;;;5.10;2.90;;;22.00;90.00;;;;;;5085003;28;20446;-75
2023/07/31 12:20:09;;;;;;;9.93;3.83;;;21.90;92.00;;;;;;5086935;28;20449;-75
2023/07/31 12:22:57;;;;;;;9.60;3.40;;;21.80;91.90;;;;;;5079766;28;20981;-75
2023/07/31 12:25:43;;;;;;;6.73;3.13;;;21.90;94.40;;;;;;5082412;28;20451;-75
2023/07/31 12:28:28;;;;;;;7.23;3.43;;;21.90;94.20;;;;;;5088582;28;20610;-75
2023/07/31 12:31:17;;;;;;;11.93;3.70;;;21.90;93.40;;;;;;5082834;28;20491;-75
2023/07/31 12:34:03;;;;;;;9.23;3.03;;;21.90;93.10;;;;;;5087012;28;20567;-76
2023/07/31 12:36:49;;;;;;;6.00;2.87;;;21.90;91.30;;;;;;5086550;28;21043;-75
2023/07/31 12:39:34;;;;;;;9.60;3.13;;;21.90;93.00;;;;;;5085434;28;20470;-75
2023/07/31 12:42:20;;;;;;;11.23;3.50;;;21.90;93.00;;;;;;5086580;28;20437;-75
2023/07/31 12:45:06;;;;;;;8.47;3.33;;;22.00;94.70;;;;;;5081160;28;20601;-75
2023/07/31 12:47:52;;;;;;;7.60;3.40;;;22.10;93.60;;;;;;5083293;28;20421;-75
2023/07/31 12:50:39;;;;;;;9.57;3.50;;;22.20;92.10;;;;;;5075083;28;20450;-76
2023/07/31 12:53:24;;;;;;;5.17;3.00;;;22.20;96.20;;;;;;5080702;28;20976;-77
2023/07/31 12:56:10;;;;;;;11.03;3.30;;;22.20;91.50;;;;;;5080790;28;20495;-76
2023/07/31 12:58:55;;;;;;;21.60;3.90;;;22.20;92.40;;;;;;5081986;28;21063;-75
2023/07/31 13:01:41;;;;;;;6.77;2.70;;;22.10;89.70;;;;;;5091197;28;20446;-76
2023/07/31 13:04:26;;;;;;;7.10;3.27;;;22.10;90.60;;;;;;5084675;28;20942;-76
2023/07/31 13:07:13;;;;;;;13.00;2.97;;;22.00;90.80;;;;;;5081827;28;20450;-75
2023/07/31 13:09:58;;;;;;;7.27;3.40;;;22.10;91.70;;;;;;5076706;28;20611;-76
2023/07/31 13:12:44;;;;;;;7.23;3.13;;;22.10;93.20;;;;;;5077192;28;20645;-76
2023/07/31 13:15:30;;;;;;;7.77;3.37;;;22.10;89.20;;;;;;5077930;28;20447;-75
2023/07/31 13:18:15;;;;;;;6.53;3.50;;;22.10;85.60;;;;;;5086776;28;20465;-75
2023/07/31 13:21:01;;;;;;;8.50;3.17;;;22.20;86.50;;;;;;5082764;28;20451;-75
2023/07/31 13:23:47;;;;;;;5.80;3.33;;;22.30;86.30;;;;;;5084504;28;21014;-76
2023/07/31 13:26:34;;;;;;;16.03;3.50;;;22.40;80.00;;;;;;5077792;28;20434;-76
2023/07/31 13:29:19;;;;;;;7.67;3.20;;;22.30;81.40;;;;;;5089323;28;20464;-76
2023/07/31 13:32:05;;;;;;;11.63;3.50;;;22.30;81.50;;;;;;5086783;28;20435;-75
2023/07/31 13:34:51;;;;;;;8.53;4.00;;;22.30;80.40;;;;;;5087067;28;21085;-75
2023/07/31 13:37:36;;;;;;;6.87;2.90;;;22.20;84.60;;;;;;5082863;28;20454;-75
2023/07/31 13:40:23;;;;;;;9.33;3.47;;;22.20;83.90;;;;;;5095863;28;20454;-76
2023/07/31 13:43:08;;;;;;;9.27;3.20;;;22.10;86.10;;;;;;5088348;28;20564;-75
2023/07/31 13:45:54;;;;;;;6.87;3.93;;;22.20;89.70;;;;;;5093902;28;20875;-75
2023/07/31 13:48:39;;;;;;;11.03;3.27;;;22.20;87.10;;;;;;5100667;28;21128;-75
2023/07/31 13:51:25;;;;;;;5.30;2.97;;;22.10;86.50;;;;;;5095468;28;20449;-76
2023/07/31 13:54:12;;;;;;;8.60;3.20;;;22.00;86.80;;;;;;5085756;28;20512;-75
2023/07/31 13:56:58;;;;;;;11.90;3.07;;;22.00;89.50;;;;;;5100353;28;20966;-75
2023/07/31 13:59:44;;;;;;;6.93;3.27;;;22.00;88.30;;;;;;5099469;28;20453;-75
2023/07/31 14:02:29;;;;;;;7.90;3.00;;;22.00;92.80;;;;;;5095445;28;20852;-75
2023/07/31 14:05:15;;;;;;;5.40;3.13;;;22.00;90.40;;;;;;5099552;28;20470;-76
2023/07/31 14:08:01;;;;;;;11.53;3.63;;;22.00;91.30;;;;;;5089113;28;20463;-76
2023/07/31 14:10:46;;;;;;;12.43;3.23;;;22.00;86.40;;;;;;5092137;28;20496;-75
2023/07/31 14:13:33;;;;;;;7.93;3.10;;;21.90;90.10;;;;;;5100681;28;20441;-75
2023/07/31 14:16:19;;;;;;;7.73;3.33;;;21.90;90.00;;;;;;5095481;28;20598;-75
2023/07/31 14:19:04;;;;;;;6.30;3.03;;;21.90;90.70;;;;;;5088602;28;20563;-75
2023/07/31 14:21:49;;;;;;;9.03;3.00;;;21.80;90.90;;;;;;5086952;28;20440;-76
2023/07/31 14:24:35;;;;;;;6.47;3.20;;;21.80;90.90;;;;;;5098803;28;20471;-75